createdAt,value
2023-02-23T00:05:41.165Z,74
2023-02-23T00:15:49.040Z,75
2023-02-23T00:25:56.922Z,73
2023-02-23T00:36:04.803Z,72
2023-02-23T00:46:12.762Z,74
2023-02-23T00:56:21.059Z,74
2023-02-23T01:06:28.979Z,74
2023-02-23T01:16:36.977Z,75
2023-02-23T01:26:44.847Z,76
2023-02-23T01:36:52.724Z,76
2023-02-23T01:47:00.646Z,75
2023-02-23T01:57:09.654Z,75
2023-02-23T02:07:17.624Z,76
2023-02-23T02:17:25.524Z,76
2023-02-23T02:27:35.041Z,76
2023-02-23T02:37:42.988Z,76
2023-02-23T02:47:50.920Z,76
2023-02-23T02:57:58.973Z,77
2023-02-23T03:08:07.166Z,76
2023-02-23T03:18:14.977Z,71
2023-02-23T03:28:23.844Z,70
2023-02-23T03:38:31.790Z,70
2023-02-23T03:48:39.825Z,71
2023-02-23T03:58:47.771Z,71
2023-02-23T04:08:55.737Z,72
2023-02-23T04:19:03.598Z,71
2023-02-23T04:29:12.409Z,70
2023-02-23T04:39:20.363Z,71
2023-02-23T04:49:28.227Z,72
2023-02-23T04:59:39.207Z,74
2023-02-23T05:09:37.203Z,74
2023-02-23T05:19:48.484Z,74
2023-02-23T05:29:47.955Z,75
2023-02-23T05:39:48.675Z,75
2023-02-23T05:49:57.922Z,75
2023-02-23T06:00:05.949Z,75
2023-02-23T06:10:15.091Z,75
2023-02-23T06:20:23.006Z,76
2023-02-23T06:30:32.258Z,75
2023-02-23T06:40:31.527Z,76
2023-02-23T06:50:41.685Z,77
2023-02-23T07:00:41.519Z,76
2023-02-23T07:10:49.533Z,76
2023-02-23T07:20:57.489Z,76
2023-02-23T07:31:05.414Z,76
2023-02-23T07:41:13.342Z,76
2023-02-23T07:51:21.903Z,76
2023-02-23T08:01:29.852Z,76
2023-02-23T08:11:38.862Z,76
2023-02-23T08:21:46.916Z,76
2023-02-23T08:31:48.623Z,75
2023-02-23T08:41:56.837Z,75
2023-02-23T08:52:06.249Z,75
2023-02-23T09:02:05.807Z,74
2023-02-23T09:12:14.943Z,74
2023-02-23T09:22:23.464Z,74
2023-02-23T09:32:33.974Z,72
2023-02-23T09:42:31.946Z,71
2023-02-23T09:52:40.174Z,71
2023-02-23T10:02:47.571Z,69
2023-02-23T10:12:55.671Z,67
2023-02-23T10:23:04.737Z,65
2023-02-23T10:33:13.018Z,66
2023-02-23T10:43:22.038Z,64
2023-02-23T10:53:29.916Z,65
2023-02-23T11:03:38.006Z,63
2023-02-23T11:13:46.119Z,62
2023-02-23T11:23:55.597Z,62
2023-02-23T11:34:03.809Z,63
2023-02-23T11:44:12.634Z,64
2023-02-23T11:54:20.847Z,66
2023-02-23T12:04:29.347Z,69
2023-02-23T12:14:38.629Z,70
2023-02-23T12:24:38.312Z,72
2023-02-23T12:34:46.489Z,71
2023-02-23T12:44:54.514Z,71
2023-02-23T12:55:03.083Z,72
2023-02-23T13:05:11.206Z,72
2023-02-23T13:15:19.288Z,71
2023-02-23T13:25:27.366Z,70
2023-02-23T13:35:37.746Z,71
2023-02-23T13:45:45.977Z,71
2023-02-23T13:55:49.713Z,70
2023-02-23T14:05:49.731Z,68
2023-02-23T14:15:53.826Z,67
2023-02-23T14:25:54.659Z,67
2023-02-23T14:36:01.138Z,65
2023-02-23T14:46:10.799Z,65
2023-02-23T14:56:19.580Z,66
2023-02-23T15:06:29.010Z,67
2023-02-23T15:16:36.993Z,66
2023-02-23T15:26:38.573Z,67
2023-02-23T15:36:49.404Z,67
2023-02-23T15:46:57.521Z,68
2023-02-23T15:57:05.702Z,68
2023-02-23T16:07:15.362Z,68
2023-02-23T16:17:15.010Z,71
2023-02-23T16:27:24.045Z,71
2023-02-23T16:37:32.027Z,71
2023-02-23T16:47:33.068Z,70
2023-02-23T16:57:40.952Z,71
2023-02-23T17:07:50.029Z,72
2023-02-23T17:17:58.374Z,73
2023-02-23T17:28:06.516Z,74
2023-02-23T17:38:14.554Z,75
2023-02-23T17:48:23.205Z,76
2023-02-23T17:58:31.482Z,76
2023-02-23T18:08:39.926Z,77
2023-02-23T18:18:52.774Z,79
2023-02-23T18:28:50.680Z,80
2023-02-23T18:39:00.743Z,80
2023-02-23T18:49:07.787Z,79
2023-02-23T18:59:12.957Z,80
2023-02-23T19:19:16.565Z,81
2023-02-23T19:29:25.762Z,82
2023-02-23T19:39:35.478Z,81
2023-02-23T19:49:44.427Z,82
2023-02-23T19:59:52.231Z,82
2023-02-23T20:09:54.629Z,83
2023-02-23T20:19:58.071Z,83
2023-02-23T20:30:00.645Z,84
2023-02-23T20:40:05.079Z,84
2023-02-23T20:50:16.785Z,83
2023-02-23T21:10:21.380Z,81
2023-02-23T21:20:32.813Z,82
2023-02-23T21:30:35.727Z,82
2023-02-23T21:50:35.952Z,81
2023-02-23T22:00:47.701Z,81
2023-02-23T22:10:49.461Z,81
2023-02-23T22:30:49.504Z,80
2023-02-23T22:40:57.577Z,80
2023-02-23T22:51:05.394Z,80
2023-02-23T23:01:16.194Z,81
2023-02-23T23:11:23.536Z,82
2023-02-23T23:21:31.428Z,83
2023-02-23T23:31:39.327Z,84
2023-02-23T23:41:47.008Z,84
2023-02-23T23:51:55.015Z,84
